sensor_id;sensor_type;location;lat;lon;timestamp;P1;durP1;ratioP1;P2;durP2;ratioP2
21878;SDS011;27908;42.708;23.278;2023-07-29T00:01:49;10.13;;;3.33;;
21878;SDS011;27908;42.708;23.278;2023-07-29T00:04:15;7.77;;;3.10;;
21878;SDS011;27908;42.708;23.278;2023-07-29T00:06:40;7.67;;;3.40;;
21878;SDS011;27908;42.708;23.278;2023-07-29T00:09:05;8.97;;;3.57;;
21878;SDS011;27908;42.708;23.278;2023-07-29T00:11:31;7.38;;;3.40;;
21878;SDS011;27908;42.708;23.278;2023-07-29T00:13:59;8.85;;;3.90;;
21878;SDS011;27908;42.708;23.278;2023-07-29T00:16:27;9.53;;;4.00;;
21878;SDS011;27908;42.708;23.278;2023-07-29T00:18:52;7.82;;;3.40;;
21878;SDS011;27908;42.708;23.278;2023-07-29T00:21:18;9.33;;;3.20;;
21878;SDS011;27908;42.708;23.278;2023-07-29T00:23:43;10.43;;;3.40;;
21878;SDS011;27908;42.708;23.278;2023-07-29T00:26:09;8.23;;;3.30;;
21878;SDS011;27908;42.708;23.278;2023-07-29T00:28:35;8.00;;;3.80;;
21878;SDS011;27908;42.708;23.278;2023-07-29T00:31:01;8.90;;;3.40;;
21878;SDS011;27908;42.708;23.278;2023-07-29T00:33:27;9.53;;;3.70;;
21878;SDS011;27908;42.708;23.278;2023-07-29T00:35:52;9.90;;;3.33;;
21878;SDS011;27908;42.708;23.278;2023-07-29T00:38:18;9.70;;;3.40;;
21878;SDS011;27908;42.708;23.278;2023-07-29T00:40:43;8.17;;;3.80;;
21878;SDS011;27908;42.708;23.278;2023-07-29T00:43:08;7.67;;;3.33;;
21878;SDS011;27908;42.708;23.278;2023-07-29T00:45:34;8.27;;;3.30;;
21878;SDS011;27908;42.708;23.278;2023-07-29T00:48:00;8.32;;;3.28;;
21878;SDS011;27908;42.708;23.278;2023-07-29T00:50:26;8.10;;;3.65;;
21878;SDS011;27908;42.708;23.278;2023-07-29T00:52:53;8.77;;;3.58;;
21878;SDS011;27908;42.708;23.278;2023-07-29T00:55:19;8.70;;;3.57;;
21878;SDS011;27908;42.708;23.278;2023-07-29T00:57:45;8.38;;;3.90;;
21878;SDS011;27908;42.708;23.278;2023-07-29T01:00:13;9.15;;;3.60;;
21878;SDS011;27908;42.708;23.278;2023-07-29T01:02:39;9.80;;;3.70;;
21878;SDS011;27908;42.708;23.278;2023-07-29T01:05:05;8.95;;;3.40;;
21878;SDS011;27908;42.708;23.278;2023-07-29T01:10:19;8.30;;;3.72;;
21878;SDS011;27908;42.708;23.278;2023-07-29T01:13:13;9.00;;;4.07;;
21878;SDS011;27908;42.708;23.278;2023-07-29T01:15:48;8.40;;;3.40;;
21878;SDS011;27908;42.708;23.278;2023-07-29T01:18:26;8.10;;;3.45;;
21878;SDS011;27908;42.708;23.278;2023-07-29T01:20:58;8.10;;;3.63;;
21878;SDS011;27908;42.708;23.278;2023-07-29T01:23:27;10.45;;;5.15;;
21878;SDS011;27908;42.708;23.278;2023-07-29T01:25:54;8.93;;;3.90;;
21878;SDS011;27908;42.708;23.278;2023-07-29T01:28:20;10.37;;;3.30;;
21878;SDS011;27908;42.708;23.278;2023-07-29T01:30:45;10.33;;;3.93;;
21878;SDS011;27908;42.708;23.278;2023-07-29T01:33:18;8.23;;;3.50;;
21878;SDS011;27908;42.708;23.278;2023-07-29T01:35:50;8.00;;;3.83;;
21878;SDS011;27908;42.708;23.278;2023-07-29T01:38:23;11.18;;;3.88;;
21878;SDS011;27908;42.708;23.278;2023-07-29T01:40:53;8.50;;;3.70;;
21878;SDS011;27908;42.708;23.278;2023-07-29T01:43:19;7.90;;;3.58;;
21878;SDS011;27908;42.708;23.278;2023-07-29T01:45:48;8.23;;;3.70;;
21878;SDS011;27908;42.708;23.278;2023-07-29T01:48:14;8.30;;;3.92;;
21878;SDS011;27908;42.708;23.278;2023-07-29T01:50:40;8.10;;;3.67;;
21878;SDS011;27908;42.708;23.278;2023-07-29T01:53:05;9.00;;;3.70;;
21878;SDS011;27908;42.708;23.278;2023-07-29T01:55:31;9.32;;;4.00;;
21878;SDS011;27908;42.708;23.278;2023-07-29T01:57:56;10.07;;;3.60;;
21878;SDS011;27908;42.708;23.278;2023-07-29T02:00:22;10.57;;;3.83;;
21878;SDS011;27908;42.708;23.278;2023-07-29T02:02:47;9.98;;;3.55;;
21878;SDS011;27908;42.708;23.278;2023-07-29T02:05:12;7.67;;;3.60;;
21878;SDS011;27908;42.708;23.278;2023-07-29T02:07:38;7.97;;;3.40;;
21878;SDS011;27908;42.708;23.278;2023-07-29T02:10:03;14.57;;;3.50;;
21878;SDS011;27908;42.708;23.278;2023-07-29T02:12:29;8.57;;;3.75;;
21878;SDS011;27908;42.708;23.278;2023-07-29T02:14:54;7.40;;;3.33;;
21878;SDS011;27908;42.708;23.278;2023-07-29T02:17:20;7.47;;;3.50;;
21878;SDS011;27908;42.708;23.278;2023-07-29T02:19:46;8.00;;;3.33;;
21878;SDS011;27908;42.708;23.278;2023-07-29T02:22:16;12.90;;;3.73;;
21878;SDS011;27908;42.708;23.278;2023-07-29T02:24:42;9.02;;;3.70;;
21878;SDS011;27908;42.708;23.278;2023-07-29T02:27:07;10.32;;;3.63;;
21878;SDS011;27908;42.708;23.278;2023-07-29T02:29:33;9.67;;;3.40;;
21878;SDS011;27908;42.708;23.278;2023-07-29T02:31:59;7.40;;;3.57;;
21878;SDS011;27908;42.708;23.278;2023-07-29T02:34:24;11.20;;;3.80;;
21878;SDS011;27908;42.708;23.278;2023-07-29T02:36:50;13.10;;;3.83;;
21878;SDS011;27908;42.708;23.278;2023-07-29T02:39:15;9.33;;;3.77;;
21878;SDS011;27908;42.708;23.278;2023-07-29T02:41:41;11.20;;;3.65;;
21878;SDS011;27908;42.708;23.278;2023-07-29T02:44:06;10.77;;;4.13;;
21878;SDS011;27908;42.708;23.278;2023-07-29T02:46:32;11.70;;;3.50;;
21878;SDS011;27908;42.708;23.278;2023-07-29T02:48:57;11.83;;;4.27;;
21878;SDS011;27908;42.708;23.278;2023-07-29T02:51:23;8.50;;;3.50;;
21878;SDS011;27908;42.708;23.278;2023-07-29T02:53:48;9.90;;;3.73;;
21878;SDS011;27908;42.708;23.278;2023-07-29T02:56:13;11.60;;;3.80;;
21878;SDS011;27908;42.708;23.278;2023-07-29T02:58:39;11.50;;;3.80;;
21878;SDS011;27908;42.708;23.278;2023-07-29T03:01:05;8.68;;;3.47;;
21878;SDS011;27908;42.708;23.278;2023-07-29T03:03:31;8.17;;;3.57;;
21878;SDS011;27908;42.708;23.278;2023-07-29T03:06:04;7.88;;;3.83;;
21878;SDS011;27908;42.708;23.278;2023-07-29T03:08:30;11.25;;;5.68;;
21878;SDS011;27908;42.708;23.278;2023-07-29T03:10:56;9.70;;;3.60;;
21878;SDS011;27908;42.708;23.278;2023-07-29T03:13:22;8.38;;;3.75;;
21878;SDS011;27908;42.708;23.278;2023-07-29T03:15:47;7.80;;;3.50;;
21878;SDS011;27908;42.708;23.278;2023-07-29T03:18:13;8.80;;;3.63;;
21878;SDS011;27908;42.708;23.278;2023-07-29T03:20:38;11.57;;;4.37;;
21878;SDS011;27908;42.708;23.278;2023-07-29T03:23:03;10.57;;;3.87;;
21878;SDS011;27908;42.708;23.278;2023-07-29T03:25:29;8.87;;;4.00;;
21878;SDS011;27908;42.708;23.278;2023-07-29T03:27:54;8.63;;;3.42;;
21878;SDS011;27908;42.708;23.278;2023-07-29T03:30:20;8.63;;;4.13;;
21878;SDS011;27908;42.708;23.278;2023-07-29T03:32:46;11.23;;;4.75;;
21878;SDS011;27908;42.708;23.278;2023-07-29T03:35:12;8.47;;;3.90;;
21878;SDS011;27908;42.708;23.278;2023-07-29T03:37:38;38.53;;;18.70;;
21878;SDS011;27908;42.708;23.278;2023-07-29T03:40:03;13.30;;;6.47;;
21878;SDS011;27908;42.708;23.278;2023-07-29T03:42:29;8.73;;;3.75;;
21878;SDS011;27908;42.708;23.278;2023-07-29T03:44:54;10.73;;;4.50;;
21878;SDS011;27908;42.708;23.278;2023-07-29T03:47:20;8.45;;;3.90;;
21878;SDS011;27908;42.708;23.278;2023-07-29T03:49:45;17.90;;;9.40;;
21878;SDS011;27908;42.708;23.278;2023-07-29T03:52:11;14.20;;;6.80;;
21878;SDS011;27908;42.708;23.278;2023-07-29T03:54:36;9.93;;;4.73;;
21878;SDS011;27908;42.708;23.278;2023-07-29T03:57:02;10.87;;;4.17;;
21878;SDS011;27908;42.708;23.278;2023-07-29T03:59:27;10.02;;;3.75;;
21878;SDS011;27908;42.708;23.278;2023-07-29T04:01:52;8.83;;;3.97;;
21878;SDS011;27908;42.708;23.278;2023-07-29T04:04:18;8.10;;;3.50;;
21878;SDS011;27908;42.708;23.278;2023-07-29T04:06:44;7.73;;;3.77;;
21878;SDS011;27908;42.708;23.278;2023-07-29T04:09:09;10.17;;;5.73;;
21878;SDS011;27908;42.708;23.278;2023-07-29T04:11:35;10.23;;;4.35;;
21878;SDS011;27908;42.708;23.278;2023-07-29T04:14:00;14.37;;;8.70;;
21878;SDS011;27908;42.708;23.278;2023-07-29T04:16:26;22.73;;;12.47;;
21878;SDS011;27908;42.708;23.278;2023-07-29T04:18:51;22.02;;;12.60;;
21878;SDS011;27908;42.708;23.278;2023-07-29T04:21:17;33.43;;;16.43;;
21878;SDS011;27908;42.708;23.278;2023-07-29T04:23:42;13.13;;;5.80;;
21878;SDS011;27908;42.708;23.278;2023-07-29T04:26:08;9.40;;;4.43;;
21878;SDS011;27908;42.708;23.278;2023-07-29T04:28:33;8.93;;;4.57;;
21878;SDS011;27908;42.708;23.278;2023-07-29T04:30:58;11.03;;;4.43;;
21878;SDS011;27908;42.708;23.278;2023-07-29T04:33:24;15.05;;;7.40;;
21878;SDS011;27908;42.708;23.278;2023-07-29T04:35:50;11.90;;;5.53;;
21878;SDS011;27908;42.708;23.278;2023-07-29T04:38:15;21.37;;;11.33;;
21878;SDS011;27908;42.708;23.278;2023-07-29T04:40:41;23.93;;;13.57;;
21878;SDS011;27908;42.708;23.278;2023-07-29T04:43:06;10.30;;;5.18;;
21878;SDS011;27908;42.708;23.278;2023-07-29T04:45:32;13.70;;;5.97;;
21878;SDS011;27908;42.708;23.278;2023-07-29T04:47:57;46.13;;;27.20;;
21878;SDS011;27908;42.708;23.278;2023-07-29T04:50:25;59.78;;;32.35;;
21878;SDS011;27908;42.708;23.278;2023-07-29T04:52:50;64.63;;;34.88;;
21878;SDS011;27908;42.708;23.278;2023-07-29T04:55:17;12.77;;;6.77;;
21878;SDS011;27908;42.708;23.278;2023-07-29T04:57:43;12.03;;;4.63;;
21878;SDS011;27908;42.708;23.278;2023-07-29T05:00:08;16.93;;;8.73;;
21878;SDS011;27908;42.708;23.278;2023-07-29T05:02:35;24.70;;;13.05;;
21878;SDS011;27908;42.708;23.278;2023-07-29T05:05:01;16.00;;;7.83;;
21878;SDS011;27908;42.708;23.278;2023-07-29T05:07:26;15.65;;;7.97;;
21878;SDS011;27908;42.708;23.278;2023-07-29T05:09:52;9.70;;;4.23;;
21878;SDS011;27908;42.708;23.278;2023-07-29T05:12:17;8.80;;;4.00;;
21878;SDS011;27908;42.708;23.278;2023-07-29T05:14:42;9.47;;;4.43;;
21878;SDS011;27908;42.708;23.278;2023-07-29T05:17:08;12.30;;;4.40;;
21878;SDS011;27908;42.708;23.278;2023-07-29T05:19:33;10.63;;;4.40;;
21878;SDS011;27908;42.708;23.278;2023-07-29T05:21:59;10.70;;;4.47;;
21878;SDS011;27908;42.708;23.278;2023-07-29T05:24:24;9.80;;;4.27;;
21878;SDS011;27908;42.708;23.278;2023-07-29T05:26:49;9.75;;;4.45;;
21878;SDS011;27908;42.708;23.278;2023-07-29T05:29:15;9.23;;;3.90;;
21878;SDS011;27908;42.708;23.278;2023-07-29T05:31:40;13.90;;;5.33;;
21878;SDS011;27908;42.708;23.278;2023-07-29T05:34:06;8.50;;;4.17;;
21878;SDS011;27908;42.708;23.278;2023-07-29T05:36:32;10.05;;;4.03;;
21878;SDS011;27908;42.708;23.278;2023-07-29T05:38:58;8.57;;;4.17;;
21878;SDS011;27908;42.708;23.278;2023-07-29T05:41:23;11.25;;;4.70;;
21878;SDS011;27908;42.708;23.278;2023-07-29T05:43:51;8.13;;;4.22;;
21878;SDS011;27908;42.708;23.278;2023-07-29T05:46:16;11.70;;;4.60;;
21878;SDS011;27908;42.708;23.278;2023-07-29T05:48:41;9.50;;;4.73;;
21878;SDS011;27908;42.708;23.278;2023-07-29T05:51:07;10.03;;;4.53;;
21878;SDS011;27908;42.708;23.278;2023-07-29T05:53:32;12.27;;;4.88;;
21878;SDS011;27908;42.708;23.278;2023-07-29T05:55:57;7.97;;;4.00;;
21878;SDS011;27908;42.708;23.278;2023-07-29T05:58:23;10.60;;;4.23;;
21878;SDS011;27908;42.708;23.278;2023-07-29T06:00:48;10.20;;;4.37;;
21878;SDS011;27908;42.708;23.278;2023-07-29T06:03:14;11.93;;;4.17;;
21878;SDS011;27908;42.708;23.278;2023-07-29T06:05:39;10.27;;;4.20;;
21878;SDS011;27908;42.708;23.278;2023-07-29T06:08:04;11.13;;;4.20;;
21878;SDS011;27908;42.708;23.278;2023-07-29T06:10:30;10.93;;;4.33;;
21878;SDS011;27908;42.708;23.278;2023-07-29T06:12:56;11.65;;;4.32;;
21878;SDS011;27908;42.708;23.278;2023-07-29T06:15:21;9.10;;;4.10;;
21878;SDS011;27908;42.708;23.278;2023-07-29T06:17:48;9.60;;;4.13;;
21878;SDS011;27908;42.708;23.278;2023-07-29T06:20:14;9.57;;;4.47;;
21878;SDS011;27908;42.708;23.278;2023-07-29T06:22:39;11.00;;;3.70;;
21878;SDS011;27908;42.708;23.278;2023-07-29T06:25:06;8.32;;;3.97;;
21878;SDS011;27908;42.708;23.278;2023-07-29T06:27:32;10.43;;;4.03;;
21878;SDS011;27908;42.708;23.278;2023-07-29T06:29:57;11.93;;;4.20;;
21878;SDS011;27908;42.708;23.278;2023-07-29T06:32:22;11.33;;;4.47;;
21878;SDS011;27908;42.708;23.278;2023-07-29T06:34:48;8.93;;;4.35;;
21878;SDS011;27908;42.708;23.278;2023-07-29T06:37:13;9.93;;;4.57;;
21878;SDS011;27908;42.708;23.278;2023-07-29T06:39:39;10.00;;;4.30;;
21878;SDS011;27908;42.708;23.278;2023-07-29T06:42:04;8.57;;;4.15;;
21878;SDS011;27908;42.708;23.278;2023-07-29T06:44:30;9.83;;;3.90;;
21878;SDS011;27908;42.708;23.278;2023-07-29T06:46:55;9.73;;;4.00;;
21878;SDS011;27908;42.708;23.278;2023-07-29T06:49:22;9.88;;;4.28;;
21878;SDS011;27908;42.708;23.278;2023-07-29T06:51:48;9.93;;;4.50;;
21878;SDS011;27908;42.708;23.278;2023-07-29T06:54:13;10.63;;;4.60;;
21878;SDS011;27908;42.708;23.278;2023-07-29T06:56:41;14.63;;;4.80;;
21878;SDS011;27908;42.708;23.278;2023-07-29T06:59:06;11.50;;;3.90;;
21878;SDS011;27908;42.708;23.278;2023-07-29T07:01:32;10.20;;;4.93;;
21878;SDS011;27908;42.708;23.278;2023-07-29T07:03:57;10.50;;;4.53;;
21878;SDS011;27908;42.708;23.278;2023-07-29T07:06:23;10.50;;;4.32;;
21878;SDS011;27908;42.708;23.278;2023-07-29T07:08:49;10.52;;;4.50;;
21878;SDS011;27908;42.708;23.278;2023-07-29T07:11:15;13.10;;;4.90;;
21878;SDS011;27908;42.708;23.278;2023-07-29T07:13:41;10.70;;;4.93;;
21878;SDS011;27908;42.708;23.278;2023-07-29T07:16:06;10.53;;;4.63;;
21878;SDS011;27908;42.708;23.278;2023-07-29T07:18:31;12.27;;;4.50;;
21878;SDS011;27908;42.708;23.278;2023-07-29T07:20:57;11.80;;;4.70;;
21878;SDS011;27908;42.708;23.278;2023-07-29T07:23:22;9.77;;;4.47;;
21878;SDS011;27908;42.708;23.278;2023-07-29T07:25:48;8.90;;;4.10;;
21878;SDS011;27908;42.708;23.278;2023-07-29T07:28:13;8.33;;;4.13;;
21878;SDS011;27908;42.708;23.278;2023-07-29T07:30:42;9.70;;;3.70;;
21878;SDS011;27908;42.708;23.278;2023-07-29T07:33:07;8.60;;;4.00;;
21878;SDS011;27908;42.708;23.278;2023-07-29T07:35:33;10.23;;;4.30;;
21878;SDS011;27908;42.708;23.278;2023-07-29T07:37:58;11.43;;;5.00;;
21878;SDS011;27908;42.708;23.278;2023-07-29T07:40:26;8.57;;;3.70;;
21878;SDS011;27908;42.708;23.278;2023-07-29T07:42:52;13.82;;;5.88;;
21878;SDS011;27908;42.708;23.278;2023-07-29T07:45:17;8.10;;;4.27;;
21878;SDS011;27908;42.708;23.278;2023-07-29T07:47:43;9.03;;;3.77;;
21878;SDS011;27908;42.708;23.278;2023-07-29T07:50:08;7.38;;;3.53;;
21878;SDS011;27908;42.708;23.278;2023-07-29T07:52:34;11.00;;;4.47;;
21878;SDS011;27908;42.708;23.278;2023-07-29T07:54:59;10.73;;;4.77;;
21878;SDS011;27908;42.708;23.278;2023-07-29T07:57:25;9.18;;;4.07;;
21878;SDS011;27908;42.708;23.278;2023-07-29T07:59:50;12.33;;;4.50;;
21878;SDS011;27908;42.708;23.278;2023-07-29T08:02:17;8.88;;;4.00;;
21878;SDS011;27908;42.708;23.278;2023-07-29T08:04:43;10.55;;;4.38;;
21878;SDS011;27908;42.708;23.278;2023-07-29T08:07:08;8.57;;;3.67;;
21878;SDS011;27908;42.708;23.278;2023-07-29T08:09:34;8.47;;;4.20;;
21878;SDS011;27908;42.708;23.278;2023-07-29T08:11:59;7.53;;;3.25;;
21878;SDS011;27908;42.708;23.278;2023-07-29T08:14:25;8.63;;;3.80;;
21878;SDS011;27908;42.708;23.278;2023-07-29T08:16:51;7.75;;;3.30;;
21878;SDS011;27908;42.708;23.278;2023-07-29T08:19:17;9.10;;;3.40;;
21878;SDS011;27908;42.708;23.278;2023-07-29T08:21:42;10.17;;;3.57;;
21878;SDS011;27908;42.708;23.278;2023-07-29T08:24:07;8.10;;;3.85;;
21878;SDS011;27908;42.708;23.278;2023-07-29T08:26:33;8.33;;;3.00;;
21878;SDS011;27908;42.708;23.278;2023-07-29T08:28:58;10.83;;;3.10;;
21878;SDS011;27908;42.708;23.278;2023-07-29T08:31:24;11.27;;;3.50;;
21878;SDS011;27908;42.708;23.278;2023-07-29T08:33:49;7.25;;;2.60;;
21878;SDS011;27908;42.708;23.278;2023-07-29T08:36:15;8.93;;;2.90;;
21878;SDS011;27908;42.708;23.278;2023-07-29T08:38:40;6.40;;;2.40;;
21878;SDS011;27908;42.708;23.278;2023-07-29T08:44:06;8.10;;;2.53;;
21878;SDS011;27908;42.708;23.278;2023-07-29T08:46:55;7.70;;;2.40;;
21878;SDS011;27908;42.708;23.278;2023-07-29T08:49:22;9.23;;;2.60;;
21878;SDS011;27908;42.708;23.278;2023-07-29T08:51:49;6.28;;;2.20;;
21878;SDS011;27908;42.708;23.278;2023-07-29T08:54:15;6.20;;;2.40;;
21878;SDS011;27908;42.708;23.278;2023-07-29T08:56:42;5.77;;;2.20;;
21878;SDS011;27908;42.708;23.278;2023-07-29T08:59:08;6.18;;;2.17;;
21878;SDS011;27908;42.708;23.278;2023-07-29T09:01:35;6.25;;;2.53;;
21878;SDS011;27908;42.708;23.278;2023-07-29T09:04:01;7.03;;;2.50;;
21878;SDS011;27908;42.708;23.278;2023-07-29T09:06:26;6.40;;;2.17;;
21878;SDS011;27908;42.708;23.278;2023-07-29T09:08:53;6.45;;;1.90;;
21878;SDS011;27908;42.708;23.278;2023-07-29T09:11:21;7.25;;;2.10;;
21878;SDS011;27908;42.708;23.278;2023-07-29T09:13:47;7.18;;;2.00;;
21878;SDS011;27908;42.708;23.278;2023-07-29T09:16:13;7.95;;;2.05;;
21878;SDS011;27908;42.708;23.278;2023-07-29T09:18:39;7.10;;;2.17;;
21878;SDS011;27908;42.708;23.278;2023-07-29T09:21:05;6.70;;;2.10;;
21878;SDS011;27908;42.708;23.278;2023-07-29T09:23:40;8.80;;;2.20;;
21878;SDS011;27908;42.708;23.278;2023-07-29T09:26:07;7.30;;;1.88;;
21878;SDS011;27908;42.708;23.278;2023-07-29T09:28:33;6.97;;;2.25;;
21878;SDS011;27908;42.708;23.278;2023-07-29T09:31:00;5.63;;;2.00;;
21878;SDS011;27908;42.708;23.278;2023-07-29T09:33:26;7.65;;;2.05;;
21878;SDS011;27908;42.708;23.278;2023-07-29T09:35:52;6.45;;;2.15;;
21878;SDS011;27908;42.708;23.278;2023-07-29T09:38:17;6.77;;;1.90;;
21878;SDS011;27908;42.708;23.278;2023-07-29T09:40:43;6.80;;;1.70;;
21878;SDS011;27908;42.708;23.278;2023-07-29T09:43:10;6.53;;;1.58;;
21878;SDS011;27908;42.708;23.278;2023-07-29T09:45:36;5.50;;;1.80;;
21878;SDS011;27908;42.708;23.278;2023-07-29T09:48:03;6.90;;;1.90;;
21878;SDS011;27908;42.708;23.278;2023-07-29T09:50:35;5.75;;;2.10;;
21878;SDS011;27908;42.708;23.278;2023-07-29T09:53:02;7.13;;;1.58;;
21878;SDS011;27908;42.708;23.278;2023-07-29T09:55:28;5.37;;;1.60;;
21878;SDS011;27908;42.708;23.278;2023-07-29T09:57:57;5.10;;;1.73;;
21878;SDS011;27908;42.708;23.278;2023-07-29T10:00:30;5.60;;;1.58;;
21878;SDS011;27908;42.708;23.278;2023-07-29T10:02:56;5.80;;;2.00;;
21878;SDS011;27908;42.708;23.278;2023-07-29T10:05:25;6.47;;;1.80;;
21878;SDS011;27908;42.708;23.278;2023-07-29T10:07:51;6.33;;;1.80;;
21878;SDS011;27908;42.708;23.278;2023-07-29T10:10:17;7.15;;;1.83;;
21878;SDS011;27908;42.708;23.278;2023-07-29T10:12:43;5.63;;;1.75;;
21878;SDS011;27908;42.708;23.278;2023-07-29T10:15:08;5.47;;;2.10;;
21878;SDS011;27908;42.708;23.278;2023-07-29T10:17:35;5.10;;;1.60;;
21878;SDS011;27908;42.708;23.278;2023-07-29T10:20:02;5.38;;;1.80;;
21878;SDS011;27908;42.708;23.278;2023-07-29T10:22:32;6.75;;;1.95;;
21878;SDS011;27908;42.708;23.278;2023-07-29T10:25:04;6.80;;;1.50;;
21878;SDS011;27908;42.708;23.278;2023-07-29T10:27:42;6.05;;;1.60;;
21878;SDS011;27908;42.708;23.278;2023-07-29T10:30:12;5.40;;;1.80;;
21878;SDS011;27908;42.708;23.278;2023-07-29T10:32:44;7.07;;;1.63;;
21878;SDS011;27908;42.708;23.278;2023-07-29T10:35:11;5.53;;;2.00;;
21878;SDS011;27908;42.708;23.278;2023-07-29T10:37:38;5.93;;;1.70;;
21878;SDS011;27908;42.708;23.278;2023-07-29T10:40:08;5.82;;;1.50;;
21878;SDS011;27908;42.708;23.278;2023-07-29T10:42:35;4.67;;;1.30;;
21878;SDS011;27908;42.708;23.278;2023-07-29T10:45:16;8.02;;;1.67;;
21878;SDS011;27908;42.708;23.278;2023-07-29T10:47:43;6.15;;;1.60;;
21878;SDS011;27908;42.708;23.278;2023-07-29T10:50:16;5.90;;;1.80;;
21878;SDS011;27908;42.708;23.278;2023-07-29T10:52:43;7.30;;;1.50;;
21878;SDS011;27908;42.708;23.278;2023-07-29T10:58:19;5.60;;;1.38;;
21878;SDS011;27908;42.708;23.278;2023-07-29T11:00:45;4.80;;;1.30;;
21878;SDS011;27908;42.708;23.278;2023-07-29T11:03:11;7.00;;;1.63;;
21878;SDS011;27908;42.708;23.278;2023-07-29T11:11:01;4.88;;;1.33;;
21878;SDS011;27908;42.708;23.278;2023-07-29T11:13:30;4.78;;;1.33;;
21878;SDS011;27908;42.708;23.278;2023-07-29T11:15:58;4.60;;;1.02;;
21878;SDS011;27908;42.708;23.278;2023-07-29T11:18:30;5.93;;;1.30;;
21878;SDS011;27908;42.708;23.278;2023-07-29T11:21:00;5.45;;;1.50;;
21878;SDS011;27908;42.708;23.278;2023-07-29T11:23:30;4.70;;;1.25;;
21878;SDS011;27908;42.708;23.278;2023-07-29T11:25:57;4.30;;;1.17;;
21878;SDS011;27908;42.708;23.278;2023-07-29T11:28:24;4.88;;;1.38;;
21878;SDS011;27908;42.708;23.278;2023-07-29T11:30:50;5.53;;;1.40;;
21878;SDS011;27908;42.708;23.278;2023-07-29T11:33:23;4.18;;;1.10;;
21878;SDS011;27908;42.708;23.278;2023-07-29T11:35:51;4.28;;;1.20;;
21878;SDS011;27908;42.708;23.278;2023-07-29T11:38:17;4.50;;;1.20;;
21878;SDS011;27908;42.708;23.278;2023-07-29T11:40:43;4.30;;;1.40;;
21878;SDS011;27908;42.708;23.278;2023-07-29T11:43:18;4.85;;;1.42;;
21878;SDS011;27908;42.708;23.278;2023-07-29T11:45:44;4.75;;;1.35;;
21878;SDS011;27908;42.708;23.278;2023-07-29T11:48:10;5.38;;;1.40;;
21878;SDS011;27908;42.708;23.278;2023-07-29T11:50:35;4.47;;;1.30;;
21878;SDS011;27908;42.708;23.278;2023-07-29T11:53:00;5.30;;;1.33;;
21878;SDS011;27908;42.708;23.278;2023-07-29T11:55:26;4.80;;;1.30;;
21878;SDS011;27908;42.708;23.278;2023-07-29T11:57:51;4.95;;;1.30;;
21878;SDS011;27908;42.708;23.278;2023-07-29T12:00:17;4.47;;;1.20;;
21878;SDS011;27908;42.708;23.278;2023-07-29T12:02:43;5.35;;;1.35;;
21878;SDS011;27908;42.708;23.278;2023-07-29T12:05:10;6.18;;;1.42;;
21878;SDS011;27908;42.708;23.278;2023-07-29T12:07:40;4.77;;;1.50;;
21878;SDS011;27908;42.708;23.278;2023-07-29T12:10:07;4.70;;;1.15;;
21878;SDS011;27908;42.708;23.278;2023-07-29T12:12:38;4.93;;;1.42;;
21878;SDS011;27908;42.708;23.278;2023-07-29T12:15:09;4.78;;;1.35;;
21878;SDS011;27908;42.708;23.278;2023-07-29T12:17:39;5.00;;;1.27;;
21878;SDS011;27908;42.708;23.278;2023-07-29T12:20:07;5.18;;;1.50;;
21878;SDS011;27908;42.708;23.278;2023-07-29T12:22:33;4.72;;;1.20;;
21878;SDS011;27908;42.708;23.278;2023-07-29T12:24:59;5.67;;;1.00;;
21878;SDS011;27908;42.708;23.278;2023-07-29T12:27:24;4.17;;;1.17;;
21878;SDS011;27908;42.708;23.278;2023-07-29T12:29:51;4.57;;;1.17;;
21878;SDS011;27908;42.708;23.278;2023-07-29T12:32:18;5.45;;;1.33;;
21878;SDS011;27908;42.708;23.278;2023-07-29T12:34:44;5.63;;;1.60;;
21878;SDS011;27908;42.708;23.278;2023-07-29T12:37:09;5.20;;;1.37;;
21878;SDS011;27908;42.708;23.278;2023-07-29T12:39:39;3.75;;;1.00;;
21878;SDS011;27908;42.708;23.278;2023-07-29T12:42:06;5.10;;;1.30;;
21878;SDS011;27908;42.708;23.278;2023-07-29T12:44:35;22.88;;;2.53;;
21878;SDS011;27908;42.708;23.278;2023-07-29T12:47:03;6.35;;;1.23;;
21878;SDS011;27908;42.708;23.278;2023-07-29T12:49:30;4.27;;;0.97;;
21878;SDS011;27908;42.708;23.278;2023-07-29T12:51:56;4.75;;;1.10;;
21878;SDS011;27908;42.708;23.278;2023-07-29T12:54:22;4.68;;;1.20;;
21878;SDS011;27908;42.708;23.278;2023-07-29T12:56:48;4.80;;;1.30;;
21878;SDS011;27908;42.708;23.278;2023-07-29T12:59:13;4.43;;;1.02;;
21878;SDS011;27908;42.708;23.278;2023-07-29T13:01:40;4.87;;;1.30;;
21878;SDS011;27908;42.708;23.278;2023-07-29T13:04:06;4.57;;;1.15;;
21878;SDS011;27908;42.708;23.278;2023-07-29T13:06:31;4.97;;;1.20;;
21878;SDS011;27908;42.708;23.278;2023-07-29T13:08:56;3.50;;;0.90;;
21878;SDS011;27908;42.708;23.278;2023-07-29T13:11:22;7.63;;;1.13;;
21878;SDS011;27908;42.708;23.278;2023-07-29T13:13:47;7.20;;;1.17;;
21878;SDS011;27908;42.708;23.278;2023-07-29T13:16:12;5.10;;;1.00;;
21878;SDS011;27908;42.708;23.278;2023-07-29T13:18:38;6.33;;;1.20;;
21878;SDS011;27908;42.708;23.278;2023-07-29T13:21:04;5.80;;;1.10;;
21878;SDS011;27908;42.708;23.278;2023-07-29T13:23:30;4.70;;;1.20;;
21878;SDS011;27908;42.708;23.278;2023-07-29T13:25:55;4.70;;;1.23;;
21878;SDS011;27908;42.708;23.278;2023-07-29T13:28:22;5.45;;;1.20;;
21878;SDS011;27908;42.708;23.278;2023-07-29T13:30:47;4.90;;;1.50;;
21878;SDS011;27908;42.708;23.278;2023-07-29T13:33:13;5.63;;;1.40;;
21878;SDS011;27908;42.708;23.278;2023-07-29T13:35:38;6.10;;;1.50;;
21878;SDS011;27908;42.708;23.278;2023-07-29T13:38:03;11.18;;;1.65;;
21878;SDS011;27908;42.708;23.278;2023-07-29T13:40:29;10.73;;;1.00;;
21878;SDS011;27908;42.708;23.278;2023-07-29T13:42:55;8.17;;;1.20;;
21878;SDS011;27908;42.708;23.278;2023-07-29T13:45:20;5.53;;;1.37;;
21878;SDS011;27908;42.708;23.278;2023-07-29T13:47:47;7.60;;;1.55;;
21878;SDS011;27908;42.708;23.278;2023-07-29T13:50:13;7.20;;;1.27;;
21878;SDS011;27908;42.708;23.278;2023-07-29T13:52:38;4.97;;;1.00;;
21878;SDS011;27908;42.708;23.278;2023-07-29T13:55:04;6.27;;;1.37;;
21878;SDS011;27908;42.708;23.278;2023-07-29T13:57:30;6.10;;;1.30;;
21878;SDS011;27908;42.708;23.278;2023-07-29T13:59:56;6.40;;;1.20;;
21878;SDS011;27908;42.708;23.278;2023-07-29T14:02:22;5.87;;;1.20;;
21878;SDS011;27908;42.708;23.278;2023-07-29T14:04:47;4.40;;;1.30;;
21878;SDS011;27908;42.708;23.278;2023-07-29T14:07:13;7.88;;;1.50;;
21878;SDS011;27908;42.708;23.278;2023-07-29T14:09:38;5.40;;;1.20;;
21878;SDS011;27908;42.708;23.278;2023-07-29T14:12:04;5.30;;;1.10;;
21878;SDS011;27908;42.708;23.278;2023-07-29T14:14:29;6.05;;;1.30;;
21878;SDS011;27908;42.708;23.278;2023-07-29T14:16:55;5.38;;;1.10;;
21878;SDS011;27908;42.708;23.278;2023-07-29T14:19:21;4.97;;;1.40;;
21878;SDS011;27908;42.708;23.278;2023-07-29T14:21:46;5.33;;;1.60;;
21878;SDS011;27908;42.708;23.278;2023-07-29T14:24:12;6.40;;;1.60;;
21878;SDS011;27908;42.708;23.278;2023-07-29T14:26:37;5.20;;;1.42;;
21878;SDS011;27908;42.708;23.278;2023-07-29T14:29:02;6.17;;;1.33;;
21878;SDS011;27908;42.708;23.278;2023-07-29T14:31:28;5.40;;;1.30;;
21878;SDS011;27908;42.708;23.278;2023-07-29T14:33:53;6.43;;;1.30;;
21878;SDS011;27908;42.708;23.278;2023-07-29T14:36:18;8.00;;;1.50;;
21878;SDS011;27908;42.708;23.278;2023-07-29T14:38:44;5.72;;;1.50;;
21878;SDS011;27908;42.708;23.278;2023-07-29T14:41:09;5.10;;;1.50;;